createdAt,value
2023-01-29T00:00:12.863Z,2.25
2023-01-29T00:02:39.988Z,2.27
2023-01-29T00:05:26.409Z,2.27
2023-01-29T00:07:55.156Z,2.28
2023-01-29T00:10:22.654Z,2.29
2023-01-29T00:12:49.308Z,2.30
2023-01-29T00:15:19.027Z,2.31
2023-01-29T00:17:45.626Z,2.30
2023-01-29T00:20:13.035Z,2.31
2023-01-29T00:22:42.338Z,2.32
2023-01-29T00:25:10.015Z,2.29
2023-01-29T00:27:37.223Z,2.31
2023-01-29T00:30:12.912Z,2.32
2023-01-29T00:32:43.430Z,2.32
2023-01-29T00:35:10.945Z,2.34
2023-01-29T00:37:38.487Z,2.36
2023-01-29T00:40:06.466Z,2.35
2023-01-29T00:42:53.606Z,2.37
2023-01-29T00:45:20.557Z,2.37
2023-01-29T00:47:47.376Z,2.35
2023-01-29T00:50:14.657Z,2.37
2023-01-29T00:52:42.584Z,2.39
2023-01-29T00:55:11.744Z,2.41
2023-01-29T00:57:39.459Z,2.40
2023-01-29T01:00:13.377Z,2.44
2023-01-29T01:02:59.024Z,2.44
2023-01-29T01:05:25.902Z,2.46
2023-01-29T01:07:57.749Z,2.46
2023-01-29T01:10:33.661Z,2.45
2023-01-29T01:13:10.380Z,2.48
2023-01-29T01:15:40.595Z,2.48
2023-01-29T01:18:10.347Z,2.49
2023-01-29T01:20:37.370Z,2.47
2023-01-29T01:23:05.220Z,2.47
2023-01-29T01:25:32.068Z,2.46
2023-01-29T01:28:02.890Z,2.46
2023-01-29T01:30:30.168Z,2.46
2023-01-29T01:32:56.879Z,2.48
2023-01-29T01:35:23.696Z,2.50
2023-01-29T01:37:50.401Z,2.49
2023-01-29T01:40:24.164Z,2.49
2023-01-29T01:42:58.062Z,2.48
2023-01-29T01:45:37.542Z,2.48
2023-01-29T01:48:23.601Z,2.50
2023-01-29T01:51:05.257Z,2.49
2023-01-29T01:53:44.975Z,2.44
2023-01-29T01:56:26.444Z,2.46
2023-01-29T01:58:59.342Z,2.49
2023-01-29T02:01:28.728Z,2.50
2023-01-29T02:04:35.047Z,2.52
2023-01-29T02:07:28.739Z,2.50
2023-01-29T02:10:12.437Z,2.55
2023-01-29T02:12:43.106Z,2.55
2023-01-29T02:15:11.113Z,2.56
2023-01-29T02:17:38.641Z,2.56
2023-01-29T02:20:29.156Z,2.57
2023-01-29T02:24:09.975Z,2.56
2023-01-29T02:27:07.858Z,2.60
2023-01-29T02:30:09.501Z,2.64
2023-01-29T02:33:00.974Z,2.63
2023-01-29T02:35:46.675Z,2.66
2023-01-29T02:38:55.519Z,2.69
2023-01-29T02:41:34.040Z,2.70
2023-01-29T02:44:25.147Z,2.73
2023-01-29T02:47:13.990Z,2.71
2023-01-29T02:50:15.542Z,2.73
2023-01-29T02:52:59.937Z,2.77
2023-01-29T02:55:42.202Z,2.79
2023-01-29T02:58:41.323Z,2.79
2023-01-29T03:01:18.847Z,2.79
2023-01-29T03:04:05.231Z,2.84
2023-01-29T03:06:54.274Z,2.85
2023-01-29T03:09:49.553Z,2.87
2023-01-29T03:12:37.012Z,2.85
2023-01-29T03:15:16.906Z,2.83
2023-01-29T03:18:09.636Z,2.79
2023-01-29T03:20:55.527Z,2.75
2023-01-29T03:23:48.619Z,2.74
2023-01-29T03:26:40.525Z,2.74
2023-01-29T03:29:30.584Z,2.72
2023-01-29T03:32:07.902Z,2.71
2023-01-29T03:34:53.056Z,2.76
2023-01-29T03:37:46.907Z,2.78
2023-01-29T03:40:15.972Z,2.80
2023-01-29T03:43:25.862Z,2.82
2023-01-29T03:46:32.136Z,2.84
2023-01-29T03:49:43.975Z,2.84
2023-01-29T03:52:48.509Z,2.80
2023-01-29T03:56:03.760Z,2.82
2023-01-29T03:59:04.674Z,2.85
2023-01-29T04:01:57.652Z,2.83
2023-01-29T04:04:35.004Z,2.86
2023-01-29T04:07:13.960Z,2.87
2023-01-29T04:10:00.756Z,2.89
2023-01-29T04:12:41.113Z,2.87
2023-01-29T04:15:15.445Z,2.89
2023-01-29T04:17:49.712Z,2.82
2023-01-29T04:20:17.563Z,2.83
2023-01-29T04:22:50.380Z,2.85
2023-01-29T04:25:36.317Z,2.88
2023-01-29T04:28:46.767Z,2.89
2023-01-29T04:31:14.724Z,2.90
2023-01-29T04:34:20.844Z,2.91
2023-01-29T04:37:13.348Z,2.92
2023-01-29T04:39:56.631Z,2.91
2023-01-29T04:42:41.597Z,2.97
2023-01-29T04:45:35.093Z,2.96
2023-01-29T04:48:30.797Z,2.95
2023-01-29T04:51:38.638Z,2.95
2023-01-29T04:54:23.436Z,2.96
2023-01-29T04:57:37.027Z,2.98
2023-01-29T05:00:27.539Z,2.98
2023-01-29T05:02:56.400Z,2.97
2023-01-29T05:05:23.155Z,2.97
2023-01-29T05:07:51.421Z,3.01
2023-01-29T05:10:23.005Z,3.01
2023-01-29T05:13:02.739Z,3.01
2023-01-29T05:15:51.334Z,3.03
2023-01-29T05:18:18.846Z,3.02
2023-01-29T05:20:48.243Z,3.05
2023-01-29T05:23:21.364Z,3.05
2023-01-29T05:25:53.598Z,3.05
2023-01-29T05:28:20.224Z,3.06
2023-01-29T05:30:52.182Z,3.08
2023-01-29T05:33:31.290Z,3.06
2023-01-29T05:36:00.269Z,3.07
2023-01-29T05:38:27.038Z,3.06
2023-01-29T05:40:54.699Z,3.07
2023-01-29T05:43:26.085Z,3.07
2023-01-29T05:46:01.319Z,3.05
2023-01-29T05:48:32.767Z,3.08
2023-01-29T05:51:05.238Z,3.06
2023-01-29T05:53:38.694Z,3.07
2023-01-29T05:56:08.713Z,3.06
2023-01-29T05:58:39.214Z,3.06
2023-01-29T06:01:20.067Z,3.07
2023-01-29T06:03:47.874Z,3.03
2023-01-29T06:06:16.089Z,3.03
2023-01-29T06:08:43.552Z,3.05
2023-01-29T06:11:13.490Z,3.06
2023-01-29T06:13:43.169Z,3.07
2023-01-29T06:16:13.132Z,3.08
2023-01-29T06:18:44.176Z,3.10
2023-01-29T06:21:14.101Z,3.09
2023-01-29T06:23:46.729Z,3.08
2023-01-29T06:26:18.877Z,3.09
2023-01-29T06:28:50.039Z,3.09
2023-01-29T06:31:37.894Z,3.09
2023-01-29T06:34:06.678Z,3.07
2023-01-29T06:36:33.835Z,3.08
2023-01-29T06:39:00.486Z,3.10
2023-01-29T06:41:27.249Z,3.12
2023-01-29T06:43:54.115Z,3.12
2023-01-29T06:46:21.117Z,3.11
2023-01-29T06:48:47.813Z,3.11
2023-01-29T06:51:14.610Z,3.13
2023-01-29T08:04:20.747Z,3.00
2023-01-29T08:06:47.369Z,3.00
2023-01-29T08:09:14.168Z,2.97
2023-01-29T08:11:44.039Z,2.96
2023-01-29T08:14:10.777Z,2.95
2023-01-29T08:16:37.466Z,2.94
2023-01-29T08:19:04.266Z,2.90
2023-01-29T08:21:31.030Z,2.91
2023-01-29T08:23:57.762Z,2.93
2023-01-29T08:26:26.253Z,2.99
2023-01-29T08:28:55.984Z,2.97
2023-01-29T08:31:22.996Z,2.98
2023-01-29T08:33:49.874Z,2.99
2023-01-29T09:08:48.236Z,3.19
2023-01-29T10:13:25.562Z,3.12
2023-01-29T10:16:35.375Z,3.15
2023-01-29T10:45:59.384Z,3.18
2023-01-29T10:49:12.326Z,3.13
2023-01-29T12:46:30.554Z,3.59
2023-01-29T13:10:41.931Z,3.41
2023-01-29T13:13:54.619Z,3.39
2023-01-29T13:16:48.461Z,3.39
2023-01-29T13:19:49.645Z,3.35
2023-01-29T13:22:35.419Z,3.29
2023-01-29T13:25:05.696Z,3.23
2023-01-29T13:27:36.686Z,3.20
2023-01-29T13:30:06.670Z,3.20
2023-01-29T13:32:36.418Z,3.18
2023-01-29T13:35:14.221Z,3.18
2023-01-29T13:37:53.367Z,3.17
2023-01-29T13:40:29.634Z,3.15
2023-01-29T13:43:01.203Z,3.17
2023-01-29T13:45:47.103Z,3.15
2023-01-29T13:48:36.923Z,3.13
2023-01-29T13:51:17.046Z,3.11
2023-01-29T13:54:02.424Z,3.10
2023-01-29T13:57:00.605Z,3.11
2023-01-29T13:59:55.388Z,3.15
2023-01-29T14:02:31.669Z,3.15
2023-01-29T14:05:29.489Z,3.12
2023-01-29T14:08:35.885Z,3.10
2023-01-29T14:11:17.910Z,3.10
2023-01-29T14:13:54.316Z,3.10
2023-01-29T14:16:20.939Z,3.09
2023-01-29T14:19:19.028Z,3.07
2023-01-29T14:22:00.197Z,3.06
2023-01-29T14:24:31.378Z,3.02
2023-01-29T14:27:00.522Z,3.02
2023-01-29T14:29:44.518Z,2.98
2023-01-29T14:32:24.906Z,2.97
2023-01-29T14:35:03.497Z,2.95
2023-01-29T14:37:54.596Z,2.94
2023-01-29T14:40:29.723Z,2.93
2023-01-29T14:43:19.938Z,2.94
2023-01-29T14:46:34.027Z,2.92
2023-01-29T14:49:01.652Z,2.94
2023-01-29T14:51:44.937Z,2.95
2023-01-29T14:54:33.654Z,2.95
2023-01-29T14:57:10.962Z,2.95
2023-01-29T15:00:08.674Z,2.96
2023-01-29T15:02:45.628Z,2.96
2023-01-29T15:05:31.253Z,2.93
2023-01-29T15:08:32.665Z,2.96
2023-01-29T15:11:35.354Z,2.96
2023-01-29T15:14:44.524Z,2.96
2023-01-29T15:17:41.759Z,2.96
2023-01-29T15:20:43.821Z,2.97
2023-01-29T15:23:35.121Z,3.00
2023-01-29T15:26:17.329Z,2.98
2023-01-29T15:28:51.865Z,2.98
2023-01-29T15:31:29.340Z,3.02
2023-01-29T15:33:57.293Z,3.02
2023-01-29T15:36:30.026Z,2.99
2023-01-29T15:39:12.081Z,3.03
2023-01-29T15:41:41.351Z,3.04
2023-01-29T15:44:23.016Z,3.04
2023-01-29T15:47:09.934Z,3.02
2023-01-29T15:49:46.522Z,3.05
2023-01-29T15:52:28.879Z,3.06
2023-01-29T15:55:04.273Z,3.05
2023-01-29T15:57:45.114Z,3.04
2023-01-29T16:00:27.589Z,3.07
2023-01-29T16:02:57.050Z,3.07
2023-01-29T16:05:33.060Z,3.07
2023-01-29T16:08:03.850Z,3.08
2023-01-29T16:10:33.589Z,3.06
2023-01-29T16:13:03.132Z,3.08
2023-01-29T16:15:53.724Z,3.07
2023-01-29T16:18:35.320Z,3.06
2023-01-29T16:21:38.635Z,3.08
2023-01-29T16:24:19.605Z,3.08
2023-01-29T16:26:56.979Z,3.07
2023-01-29T16:29:32.846Z,3.10
2023-01-29T16:32:10.387Z,3.11
2023-01-29T16:34:56.007Z,3.13
2023-01-29T16:37:32.114Z,3.17
2023-01-29T16:40:15.707Z,3.18
2023-01-29T16:42:45.735Z,3.19
2023-01-29T16:45:28.861Z,3.18
2023-01-29T16:48:33.366Z,3.17
2023-01-29T16:51:13.846Z,3.18
2023-01-29T16:54:23.568Z,3.15
2023-01-29T16:57:02.034Z,3.16
2023-01-29T16:59:46.712Z,3.14
2023-01-29T17:02:27.764Z,3.16
2023-01-29T17:05:19.959Z,3.17
2023-01-29T17:07:47.677Z,3.15
2023-01-29T17:10:28.946Z,3.13
2023-01-29T17:13:08.380Z,3.12
2023-01-29T17:15:46.759Z,3.10
2023-01-29T17:18:24.105Z,3.09
2023-01-29T17:20:54.775Z,3.07
2023-01-29T17:23:23.532Z,3.09
2023-01-29T17:25:51.724Z,3.05
2023-01-29T17:28:19.397Z,3.03
2023-01-29T17:31:06.176Z,3.03
2023-01-29T17:33:45.778Z,3.01
2023-01-29T17:36:17.300Z,3.03
2023-01-29T17:38:47.077Z,3.02
2023-01-29T17:41:35.516Z,3.01
2023-01-29T17:44:02.251Z,2.98
2023-01-29T17:46:29.042Z,2.97
2023-01-29T17:48:58.225Z,2.98
2023-01-29T17:51:25.136Z,2.98
2023-01-29T17:53:52.050Z,2.91
2023-01-29T17:56:30.597Z,2.89
2023-01-29T17:59:00.857Z,2.87
2023-01-29T18:01:27.730Z,2.90
2023-01-29T18:03:57.282Z,2.83
2023-01-29T18:06:31.872Z,2.82
2023-01-29T18:08:58.730Z,2.83
2023-01-29T18:11:25.948Z,2.82
2023-01-29T18:13:56.493Z,2.79
2023-01-29T18:16:24.743Z,2.78
2023-01-29T18:18:55.052Z,2.75
2023-01-29T18:21:24.412Z,2.71
2023-01-29T18:24:00.581Z,2.67
2023-01-29T18:26:27.312Z,2.67
2023-01-29T18:28:57.139Z,2.64
2023-01-29T18:31:23.765Z,2.64
2023-01-29T20:18:44.980Z,2.82
2023-01-29T21:18:46.226Z,2.77
2023-01-29T21:21:13.277Z,2.77
2023-01-29T22:33:04.584Z,3.33
2023-01-29T22:35:34.340Z,3.27
2023-01-29T22:38:10.231Z,3.28
2023-01-29T22:40:36.978Z,3.32
2023-01-29T22:43:11.274Z,3.33
2023-01-29T22:45:41.972Z,3.37
2023-01-29T22:48:08.799Z,3.39
2023-01-29T22:50:35.500Z,3.39
2023-01-29T22:53:08.632Z,3.36
2023-01-29T22:55:44.081Z,3.39
2023-01-29T22:58:13.143Z,3.38
2023-01-29T23:00:42.955Z,3.38
2023-01-29T23:03:12.632Z,3.42
2023-01-29T23:05:45.543Z,3.38
2023-01-29T23:08:12.238Z,3.42
2023-01-29T23:10:39.086Z,3.43
2023-01-29T23:13:08.366Z,3.39
2023-01-29T23:15:47.225Z,3.42
2023-01-29T23:18:13.945Z,3.49
2023-01-29T23:20:44.328Z,3.46
2023-01-29T23:23:11.071Z,3.45
2023-01-29T23:25:56.389Z,3.45
2023-01-29T23:28:23.088Z,3.44
2023-01-29T23:30:52.138Z,3.43
2023-01-29T23:33:19.077Z,3.47
2023-01-29T23:35:48.921Z,3.47
2023-01-29T23:38:26.823Z,3.54
2023-01-29T23:43:38.543Z,3.48
2023-01-29T23:46:08.712Z,3.50
2023-01-29T23:48:37.955Z,3.50
2023-01-29T23:51:13.117Z,3.46
2023-01-29T23:53:42.817Z,3.46
2023-01-29T23:56:11.661Z,3.48
2023-01-29T23:58:38.421Z,3.52
